Terminal Aerodrome Forecast
Issued by NWS

Home | Current Version | Previous Version | Text Only | Print | Product List | Glossary On
Versions: 1 2 3 4 5 6 7 8 9 10 11 12 13 14 15 16 17
000
FTUS45 KABQ 041740
TAFSAF
TAF
KSAF 041740Z 0418/0518 VRB05KT P6SM SCT060 SCT140
     FM041900 24007KT P6SM VCSH SCT070 SCT140
      TEMPO 0421/0501 VRB20G32KT 5SM TSRA OVC040CB
     FM050100 34007KT P6SM VCSH BKN070
      TEMPO 0501/0504 VRB18G30KT 5SM TSRA OVC045CB
     FM050600 35007KT P6SM SCT050 BKN110=

USA.gov is the U.S. government's official web portal to all federal, state and local government web resources and services.